
<gpx xmlns="http://www.topografix.com/GPX/1/1" xmlns:gpxx="http://www.garmin.com/xmlschemas/GpxExtensions/v3" xmlns:xsi="http://www.w3.org/2001/XMLSchema-instance" version="1.1" creator="Adze - http://kobotsw.com/apps/adze" xsi:schemaLocation="http://www.topografix.com/GPX/1/1 http://www.topografix.com/GPX/1/1/gpx.xsd http://www.garmin.com/xmlschemas/GpxExtensions/v3 http://www.garmin.com/xmlschemas/GpxExtensionsv3.xsd">
    <metadata>
        <name>Untitled Document</name>
        <link href="http://www.garmin.com"></link>
        <time>2018-02-26T03:48:36.570Z</time>
    </metadata>
    <wpt lon="99.682287" lat="12.902983">
        <ele>114.000000</ele>
        <time>2016-01-23T05:40:47Z</time>
        <name>KaengKrachanResort</name>
        <sym>Lodging</sym>
        <extensions>
            <gpxx:WaypointExtension xmlns:gpxx="http://www.garmin.com/xmlschemas/GpxExtensions/v3">
                <gpxx:DisplayMode>SymbolAndName</gpxx:DisplayMode>
            </gpxx:WaypointExtension>
        </extensions>
    </wpt>
    <wpt lon="99.741778" lat="12.888122">
        <time>2016-01-24T09:36:19Z</time>
        <name>Water Saturday</name>
        <cmt>Road</cmt>
        <desc>Road</desc>
        <sym>Drinking Water</sym>
        <extensions>
            <gpxx:WaypointExtension xmlns:gpxx="http://www.garmin.com/xmlschemas/GpxExtensions/v3">
                <gpxx:DisplayMode>SymbolAndName</gpxx:DisplayMode>
            </gpxx:WaypointExtension>
        </extensions>
    </wpt>
    <trk>
        <name>Saturday</name>
        <extensions>
            <gpxx:TrackExtension xmlns:gpxx="http://www.garmin.com/xmlschemas/GpxExtensions/v3">
                <gpxx:DisplayColor>Red</gpxx:DisplayColor>
            </gpxx:TrackExtension>
        </extensions>
        <trkseg>
            <trkpt lon="99.680613" lat="12.899971">
                <ele>123.190000</ele>
                <time>2016-01-23T06:03:57Z</time>
            </trkpt>
            <trkpt lon="99.680726" lat="12.899882">
                <ele>120.780000</ele>
                <time>2016-01-23T06:06:28Z</time>
            </trkpt>
            <trkpt lon="99.680566" lat="12.900047">
                <ele>120.780000</ele>
                <time>2016-01-23T06:07:26Z</time>
            </trkpt>
            <trkpt lon="99.678742" lat="12.899762">
                <ele>125.110000</ele>
                <time>2016-01-23T06:08:22Z</time>
            </trkpt>
            <trkpt lon="99.678233" lat="12.899470">
                <ele>124.630000</ele>
                <time>2016-01-23T06:08:39Z</time>
            </trkpt>
            <trkpt lon="99.678054" lat="12.898420">
                <ele>134.240000</ele>
                <time>2016-01-23T06:09:35Z</time>
            </trkpt>
            <trkpt lon="99.678069" lat="12.898108">
                <ele>136.640000</ele>
                <time>2016-01-23T06:09:55Z</time>
            </trkpt>
            <trkpt lon="99.678293" lat="12.897894">
                <ele>139.050000</ele>
                <time>2016-01-23T06:10:14Z</time>
            </trkpt>
            <trkpt lon="99.678650" lat="12.897784">
                <ele>140.490000</ele>
                <time>2016-01-23T06:10:33Z</time>
            </trkpt>
            <trkpt lon="99.680280" lat="12.897120">
                <ele>136.160000</ele>
                <time>2016-01-23T06:11:12Z</time>
            </trkpt>
            <trkpt lon="99.680320" lat="12.896515">
                <ele>148.180000</ele>
                <time>2016-01-23T06:12:27Z</time>
            </trkpt>
            <trkpt lon="99.680376" lat="12.895949">
                <ele>148.660000</ele>
                <time>2016-01-23T06:12:48Z</time>
            </trkpt>
            <trkpt lon="99.680300" lat="12.895577">
                <ele>149.140000</ele>
                <time>2016-01-23T06:13:03Z</time>
            </trkpt>
            <trkpt lon="99.680084" lat="12.895345">
                <ele>150.100000</ele>
                <time>2016-01-23T06:13:15Z</time>
            </trkpt>
            <trkpt lon="99.680289" lat="12.894754">
                <ele>154.430000</ele>
                <time>2016-01-23T06:13:42Z</time>
            </trkpt>
            <trkpt lon="99.680672" lat="12.894409">
                <ele>161.160000</ele>
                <time>2016-01-23T06:14:17Z</time>
            </trkpt>
            <trkpt lon="99.680889" lat="12.894287">
                <ele>158.270000</ele>
                <time>2016-01-23T06:14:31Z</time>
            </trkpt>
            <trkpt lon="99.681082" lat="12.894153">
                <ele>152.510000</ele>
                <time>2016-01-23T06:14:42Z</time>
            </trkpt>
            <trkpt lon="99.681235" lat="12.894126">
                <ele>149.140000</ele>
                <time>2016-01-23T06:14:46Z</time>
            </trkpt>
            <trkpt lon="99.681941" lat="12.894189">
                <ele>141.450000</ele>
                <time>2016-01-23T06:15:04Z</time>
            </trkpt>
            <trkpt lon="99.682070" lat="12.894017">
                <ele>145.300000</ele>
                <time>2016-01-23T06:15:31Z</time>
            </trkpt>
            <trkpt lon="99.682100" lat="12.893843">
                <ele>144.820000</ele>
                <time>2016-01-23T06:15:47Z</time>
            </trkpt>
            <trkpt lon="99.681927" lat="12.895064">
                <ele>137.130000</ele>
                <time>2016-01-23T06:16:38Z</time>
            </trkpt>
            <trkpt lon="99.682155" lat="12.895583">
                <ele>137.610000</ele>
                <time>2016-01-23T06:16:56Z</time>
            </trkpt>
            <trkpt lon="99.682890" lat="12.896170">
                <ele>137.130000</ele>
                <time>2016-01-23T06:17:33Z</time>
            </trkpt>
            <trkpt lon="99.683087" lat="12.896096">
                <ele>141.450000</ele>
                <time>2016-01-23T06:18:03Z</time>
            </trkpt>
            <trkpt lon="99.683386" lat="12.896075">
                <ele>143.370000</ele>
                <time>2016-01-23T06:18:26Z</time>
            </trkpt>
            <trkpt lon="99.684153" lat="12.896181">
                <ele>134.720000</ele>
                <time>2016-01-23T06:18:50Z</time>
            </trkpt>
            <trkpt lon="99.685080" lat="12.897235">
                <ele>125.590000</ele>
                <time>2016-01-23T06:19:17Z</time>
            </trkpt>
            <trkpt lon="99.685885" lat="12.896783">
                <ele>129.920000</ele>
                <time>2016-01-23T06:19:51Z</time>
            </trkpt>
            <trkpt lon="99.686450" lat="12.896627">
                <ele>132.320000</ele>
                <time>2016-01-23T06:20:13Z</time>
            </trkpt>
            <trkpt lon="99.686993" lat="12.896498">
                <ele>130.400000</ele>
                <time>2016-01-23T06:20:32Z</time>
            </trkpt>
            <trkpt lon="99.689181" lat="12.895736">
                <ele>116.460000</ele>
                <time>2016-01-23T06:21:06Z</time>
            </trkpt>
            <trkpt lon="99.690078" lat="12.896259">
                <ele>112.130000</ele>
                <time>2016-01-23T06:21:22Z</time>
            </trkpt>
            <trkpt lon="99.690502" lat="12.896369">
                <ele>111.170000</ele>
                <time>2016-01-23T06:21:28Z</time>
            </trkpt>
            <trkpt lon="99.691087" lat="12.896584">
                <ele>107.810000</ele>
                <time>2016-01-23T06:21:36Z</time>
            </trkpt>
            <trkpt lon="99.691327" lat="12.896696">
                <ele>105.400000</ele>
                <time>2016-01-23T06:21:40Z</time>
            </trkpt>
            <trkpt lon="99.691559" lat="12.896648">
                <ele>106.360000</ele>
                <time>2016-01-23T06:21:45Z</time>
            </trkpt>
            <trkpt lon="99.692077" lat="12.895855">
                <ele>105.400000</ele>
                <time>2016-01-23T06:22:03Z</time>
            </trkpt>
            <trkpt lon="99.693133" lat="12.892757">
                <ele>100.600000</ele>
                <time>2016-01-23T06:23:04Z</time>
            </trkpt>
            <trkpt lon="99.693664" lat="12.890943">
                <ele>90.980000</ele>
                <time>2016-01-23T06:23:39Z</time>
            </trkpt>
            <trkpt lon="99.692686" lat="12.890834">
                <ele>92.420000</ele>
                <time>2016-01-23T06:24:16Z</time>
            </trkpt>
            <trkpt lon="99.691477" lat="12.890415">
                <ele>100.600000</ele>
                <time>2016-01-23T06:25:15Z</time>
            </trkpt>
            <trkpt lon="99.691162" lat="12.890386">
                <ele>101.080000</ele>
                <time>2016-01-23T06:25:31Z</time>
            </trkpt>
            <trkpt lon="99.690881" lat="12.890204">
                <ele>102.040000</ele>
                <time>2016-01-23T06:25:48Z</time>
            </trkpt>
            <trkpt lon="99.690478" lat="12.889718">
                <ele>105.880000</ele>
                <time>2016-01-23T06:26:20Z</time>
            </trkpt>
            <trkpt lon="99.689917" lat="12.889610">
                <ele>107.320000</ele>
                <time>2016-01-23T06:26:47Z</time>
            </trkpt>
            <trkpt lon="99.689661" lat="12.889310">
                <ele>108.290000</ele>
                <time>2016-01-23T06:27:01Z</time>
            </trkpt>
            <trkpt lon="99.689048" lat="12.888599">
                <ele>104.920000</ele>
                <time>2016-01-23T06:27:25Z</time>
            </trkpt>
            <trkpt lon="99.688768" lat="12.888467">
                <ele>103.960000</ele>
                <time>2016-01-23T06:27:33Z</time>
            </trkpt>
            <trkpt lon="99.688580" lat="12.888122">
                <ele>104.920000</ele>
                <time>2016-01-23T06:27:45Z</time>
            </trkpt>
            <trkpt lon="99.688735" lat="12.887182">
                <ele>99.630000</ele>
                <time>2016-01-23T06:28:20Z</time>
            </trkpt>
            <trkpt lon="99.689438" lat="12.886481">
                <ele>95.790000</ele>
                <time>2016-01-23T06:29:32Z</time>
            </trkpt>
            <trkpt lon="99.689267" lat="12.886086">
                <ele>91.460000</ele>
                <time>2016-01-23T06:29:57Z</time>
            </trkpt>
            <trkpt lon="99.689564" lat="12.885034">
                <ele>86.660000</ele>
                <time>2016-01-23T06:30:37Z</time>
            </trkpt>
            <trkpt lon="99.689752" lat="12.884696">
                <ele>85.210000</ele>
                <time>2016-01-23T06:30:48Z</time>
            </trkpt>
            <trkpt lon="99.690711" lat="12.884890">
                <ele>85.210000</ele>
                <time>2016-01-23T06:31:12Z</time>
            </trkpt>
            <trkpt lon="99.690856" lat="12.884823">
                <ele>84.250000</ele>
                <time>2016-01-23T06:31:20Z</time>
            </trkpt>
            <trkpt lon="99.691098" lat="12.884012">
                <ele>83.290000</ele>
                <time>2016-01-23T06:31:42Z</time>
            </trkpt>
            <trkpt lon="99.691085" lat="12.883570">
                <ele>81.850000</ele>
                <time>2016-01-23T06:31:50Z</time>
            </trkpt>
            <trkpt lon="99.690861" lat="12.882881">
                <ele>78.970000</ele>
                <time>2016-01-23T06:32:03Z</time>
            </trkpt>
            <trkpt lon="99.690687" lat="12.882838">
                <ele>79.450000</ele>
                <time>2016-01-23T06:32:10Z</time>
            </trkpt>
            <trkpt lon="99.689679" lat="12.883357">
                <ele>78.970000</ele>
                <time>2016-01-23T06:32:41Z</time>
            </trkpt>
            <trkpt lon="99.688836" lat="12.883337">
                <ele>82.330000</ele>
                <time>2016-01-23T06:33:07Z</time>
            </trkpt>
            <trkpt lon="99.688180" lat="12.883693">
                <ele>85.210000</ele>
                <time>2016-01-23T06:33:38Z</time>
            </trkpt>
            <trkpt lon="99.687315" lat="12.883190">
                <ele>90.020000</ele>
                <time>2016-01-23T06:34:26Z</time>
            </trkpt>
            <trkpt lon="99.687009" lat="12.882838">
                <ele>90.500000</ele>
                <time>2016-01-23T06:34:44Z</time>
            </trkpt>
            <trkpt lon="99.686172" lat="12.882400">
                <ele>91.460000</ele>
                <time>2016-01-23T06:35:26Z</time>
            </trkpt>
            <trkpt lon="99.685256" lat="12.882508">
                <ele>94.350000</ele>
                <time>2016-01-23T06:43:40Z</time>
            </trkpt>
            <trkpt lon="99.684871" lat="12.882338">
                <ele>98.190000</ele>
                <time>2016-01-23T06:44:05Z</time>
            </trkpt>
            <trkpt lon="99.684295" lat="12.881697">
                <ele>104.920000</ele>
                <time>2016-01-23T06:45:02Z</time>
            </trkpt>
            <trkpt lon="99.684256" lat="12.881497">
                <ele>105.400000</ele>
                <time>2016-01-23T06:45:14Z</time>
            </trkpt>
            <trkpt lon="99.684218" lat="12.880771">
                <ele>100.110000</ele>
                <time>2016-01-23T06:46:08Z</time>
            </trkpt>
            <trkpt lon="99.684020" lat="12.880606">
                <ele>96.270000</ele>
                <time>2016-01-23T06:48:15Z</time>
            </trkpt>
            <trkpt lon="99.683911" lat="12.880325">
                <ele>83.290000</ele>
                <time>2016-01-23T06:49:18Z</time>
            </trkpt>
            <trkpt lon="99.683437" lat="12.880002">
                <ele>75.120000</ele>
                <time>2016-01-23T06:50:33Z</time>
            </trkpt>
            <trkpt lon="99.682455" lat="12.879725">
                <ele>67.910000</ele>
                <time>2016-01-23T06:51:06Z</time>
            </trkpt>
            <trkpt lon="99.682169" lat="12.879747">
                <ele>66.950000</ele>
                <time>2016-01-23T06:51:17Z</time>
            </trkpt>
            <trkpt lon="99.681945" lat="12.879998">
                <ele>68.390000</ele>
                <time>2016-01-23T06:51:37Z</time>
            </trkpt>
            <trkpt lon="99.681815" lat="12.879996">
                <ele>68.390000</ele>
                <time>2016-01-23T06:51:42Z</time>
            </trkpt>
            <trkpt lon="99.682444" lat="12.879250">
                <ele>70.790000</ele>
                <time>2016-01-23T06:52:20Z</time>
            </trkpt>
            <trkpt lon="99.682586" lat="12.878614">
                <ele>76.080000</ele>
                <time>2016-01-23T06:52:54Z</time>
            </trkpt>
            <trkpt lon="99.683112" lat="12.876635">
                <ele>73.680000</ele>
                <time>2016-01-23T06:53:46Z</time>
            </trkpt>
            <trkpt lon="99.683277" lat="12.874657">
                <ele>70.310000</ele>
                <time>2016-01-23T06:54:23Z</time>
            </trkpt>
            <trkpt lon="99.683065" lat="12.873666">
                <ele>66.950000</ele>
                <time>2016-01-23T06:54:41Z</time>
            </trkpt>
            <trkpt lon="99.682261" lat="12.871861">
                <ele>68.870000</ele>
                <time>2016-01-23T06:55:18Z</time>
            </trkpt>
            <trkpt lon="99.685337" lat="12.870034">
                <ele>73.200000</ele>
                <time>2016-01-23T06:57:12Z</time>
            </trkpt>
            <trkpt lon="99.687468" lat="12.871737">
                <ele>88.100000</ele>
                <time>2016-01-23T06:59:08Z</time>
            </trkpt>
            <trkpt lon="99.687623" lat="12.871466">
                <ele>85.210000</ele>
                <time>2016-01-23T06:59:21Z</time>
            </trkpt>
            <trkpt lon="99.686695" lat="12.870574">
                <ele>74.160000</ele>
                <time>2016-01-23T06:59:52Z</time>
            </trkpt>
            <trkpt lon="99.685301" lat="12.868676">
                <ele>74.160000</ele>
                <time>2016-01-23T07:00:55Z</time>
            </trkpt>
            <trkpt lon="99.684861" lat="12.868385">
                <ele>74.160000</ele>
                <time>2016-01-23T07:01:10Z</time>
            </trkpt>
            <trkpt lon="99.684554" lat="12.867807">
                <ele>74.160000</ele>
                <time>2016-01-23T07:01:26Z</time>
            </trkpt>
            <trkpt lon="99.683550" lat="12.866128">
                <ele>65.990000</ele>
                <time>2016-01-23T07:02:03Z</time>
            </trkpt>
            <trkpt lon="99.683381" lat="12.865642">
                <ele>65.030000</ele>
                <time>2016-01-23T07:02:15Z</time>
            </trkpt>
            <trkpt lon="99.685824" lat="12.864303">
                <ele>65.510000</ele>
                <time>2016-01-23T07:03:12Z</time>
            </trkpt>
            <trkpt lon="99.687162" lat="12.863571">
                <ele>62.140000</ele>
                <time>2016-01-23T07:03:44Z</time>
            </trkpt>
            <trkpt lon="99.686897" lat="12.863424">
                <ele>63.580000</ele>
                <time>2016-01-23T07:03:57Z</time>
            </trkpt>
            <trkpt lon="99.686607" lat="12.863053">
                <ele>64.550000</ele>
                <time>2016-01-23T07:04:15Z</time>
            </trkpt>
            <trkpt lon="99.686979" lat="12.862792">
                <ele>63.100000</ele>
                <time>2016-01-23T07:04:31Z</time>
            </trkpt>
            <trkpt lon="99.686955" lat="12.862679">
                <ele>63.100000</ele>
                <time>2016-01-23T07:04:35Z</time>
            </trkpt>
            <trkpt lon="99.686358" lat="12.862024">
                <ele>62.620000</ele>
                <time>2016-01-23T07:05:03Z</time>
            </trkpt>
            <trkpt lon="99.685729" lat="12.861383">
                <ele>60.220000</ele>
                <time>2016-01-23T07:05:33Z</time>
            </trkpt>
            <trkpt lon="99.685715" lat="12.861104">
                <ele>59.260000</ele>
                <time>2016-01-23T07:05:45Z</time>
            </trkpt>
            <trkpt lon="99.685234" lat="12.860676">
                <ele>56.370000</ele>
                <time>2016-01-23T07:06:11Z</time>
            </trkpt>
            <trkpt lon="99.685791" lat="12.861229">
                <ele>59.260000</ele>
                <time>2016-01-23T07:06:48Z</time>
            </trkpt>
            <trkpt lon="99.685793" lat="12.861477">
                <ele>60.220000</ele>
                <time>2016-01-23T07:07:01Z</time>
            </trkpt>
            <trkpt lon="99.686576" lat="12.862276">
                <ele>63.580000</ele>
                <time>2016-01-23T07:07:50Z</time>
            </trkpt>
            <trkpt lon="99.685817" lat="12.862767">
                <ele>68.390000</ele>
                <time>2016-01-23T07:08:36Z</time>
            </trkpt>
            <trkpt lon="99.684459" lat="12.863768">
                <ele>64.550000</ele>
                <time>2016-01-23T07:09:32Z</time>
            </trkpt>
            <trkpt lon="99.685175" lat="12.864595">
                <ele>65.030000</ele>
                <time>2016-01-23T07:10:20Z</time>
            </trkpt>
            <trkpt lon="99.683838" lat="12.863342">
                <ele>60.220000</ele>
                <time>2016-01-23T07:11:15Z</time>
            </trkpt>
            <trkpt lon="99.683407" lat="12.862737">
                <ele>60.700000</ele>
                <time>2016-01-23T07:11:34Z</time>
            </trkpt>
            <trkpt lon="99.683328" lat="12.862293">
                <ele>60.220000</ele>
                <time>2016-01-23T07:11:50Z</time>
            </trkpt>
            <trkpt lon="99.683300" lat="12.861583">
                <ele>55.410000</ele>
                <time>2016-01-23T07:12:16Z</time>
            </trkpt>
            <trkpt lon="99.683469" lat="12.861462">
                <ele>55.890000</ele>
                <time>2016-01-23T07:12:28Z</time>
            </trkpt>
            <trkpt lon="99.683206" lat="12.861805">
                <ele>56.370000</ele>
                <time>2016-01-23T07:12:50Z</time>
            </trkpt>
            <trkpt lon="99.683338" lat="12.862387">
                <ele>61.660000</ele>
                <time>2016-01-23T07:13:25Z</time>
            </trkpt>
            <trkpt lon="99.683180" lat="12.862711">
                <ele>62.140000</ele>
                <time>2016-01-23T07:13:47Z</time>
            </trkpt>
            <trkpt lon="99.685087" lat="12.864576">
                <ele>63.580000</ele>
                <time>2016-01-23T07:15:09Z</time>
            </trkpt>
            <trkpt lon="99.684904" lat="12.864735">
                <ele>64.070000</ele>
                <time>2016-01-23T07:15:20Z</time>
            </trkpt>
            <trkpt lon="99.686363" lat="12.864008">
                <ele>65.030000</ele>
                <time>2016-01-23T07:16:12Z</time>
            </trkpt>
            <trkpt lon="99.687248" lat="12.865305">
                <ele>67.910000</ele>
                <time>2016-01-23T07:16:56Z</time>
            </trkpt>
            <trkpt lon="99.688268" lat="12.867143">
                <ele>64.070000</ele>
                <time>2016-01-23T07:17:49Z</time>
            </trkpt>
            <trkpt lon="99.687910" lat="12.867820">
                <ele>65.030000</ele>
                <time>2016-01-23T07:18:10Z</time>
            </trkpt>
            <trkpt lon="99.688111" lat="12.867977">
                <ele>65.510000</ele>
                <time>2016-01-23T07:18:18Z</time>
            </trkpt>
            <trkpt lon="99.690212" lat="12.868192">
                <ele>66.950000</ele>
                <time>2016-01-23T07:19:14Z</time>
            </trkpt>
            <trkpt lon="99.691533" lat="12.868048">
                <ele>74.160000</ele>
                <time>2016-01-23T07:20:07Z</time>
            </trkpt>
            <trkpt lon="99.691927" lat="12.867961">
                <ele>74.160000</ele>
                <time>2016-01-23T07:20:22Z</time>
            </trkpt>
            <trkpt lon="99.692769" lat="12.866900">
                <ele>64.550000</ele>
                <time>2016-01-23T07:20:48Z</time>
            </trkpt>
            <trkpt lon="99.692526" lat="12.866824">
                <ele>63.580000</ele>
                <time>2016-01-23T07:20:56Z</time>
            </trkpt>
            <trkpt lon="99.692534" lat="12.866455">
                <ele>60.700000</ele>
                <time>2016-01-23T07:21:09Z</time>
            </trkpt>
            <trkpt lon="99.692349" lat="12.866189">
                <ele>60.220000</ele>
                <time>2016-01-23T07:21:18Z</time>
            </trkpt>
            <trkpt lon="99.692471" lat="12.866106">
                <ele>60.220000</ele>
                <time>2016-01-23T07:21:29Z</time>
            </trkpt>
            <trkpt lon="99.692780" lat="12.866504">
                <ele>63.100000</ele>
                <time>2016-01-23T07:21:53Z</time>
            </trkpt>
            <trkpt lon="99.693044" lat="12.866668">
                <ele>65.510000</ele>
                <time>2016-01-23T07:22:10Z</time>
            </trkpt>
            <trkpt lon="99.693606" lat="12.866762">
                <ele>70.790000</ele>
                <time>2016-01-23T07:22:48Z</time>
            </trkpt>
            <trkpt lon="99.694070" lat="12.867272">
                <ele>73.200000</ele>
                <time>2016-01-23T07:23:25Z</time>
            </trkpt>
            <trkpt lon="99.694819" lat="12.868374">
                <ele>67.430000</ele>
                <time>2016-01-23T07:23:55Z</time>
            </trkpt>
            <trkpt lon="99.695338" lat="12.868482">
                <ele>63.580000</ele>
                <time>2016-01-23T07:24:05Z</time>
            </trkpt>
            <trkpt lon="99.698120" lat="12.866911">
                <ele>60.220000</ele>
                <time>2016-01-23T07:24:59Z</time>
            </trkpt>
            <trkpt lon="99.698131" lat="12.866912">
                <ele>59.740000</ele>
                <time>2016-01-23T07:25:01Z</time>
            </trkpt>
            <trkpt lon="99.698573" lat="12.868240">
                <ele>58.300000</ele>
                <time>2016-01-23T07:25:51Z</time>
            </trkpt>
            <trkpt lon="99.697789" lat="12.869169">
                <ele>57.340000</ele>
                <time>2016-01-23T07:26:23Z</time>
            </trkpt>
            <trkpt lon="99.697683" lat="12.869663">
                <ele>57.820000</ele>
                <time>2016-01-23T07:26:33Z</time>
            </trkpt>
            <trkpt lon="99.697869" lat="12.871379">
                <ele>60.220000</ele>
                <time>2016-01-23T07:27:12Z</time>
            </trkpt>
            <trkpt lon="99.697540" lat="12.872041">
                <ele>57.340000</ele>
                <time>2016-01-23T07:27:27Z</time>
            </trkpt>
            <trkpt lon="99.697741" lat="12.872286">
                <ele>58.780000</ele>
                <time>2016-01-23T07:27:40Z</time>
            </trkpt>
            <trkpt lon="99.698035" lat="12.872370">
                <ele>59.740000</ele>
                <time>2016-01-23T07:27:53Z</time>
            </trkpt>
            <trkpt lon="99.699060" lat="12.872464">
                <ele>65.990000</ele>
                <time>2016-01-23T07:28:46Z</time>
            </trkpt>
            <trkpt lon="99.701154" lat="12.874558">
                <ele>67.910000</ele>
                <time>2016-01-23T07:30:25Z</time>
            </trkpt>
            <trkpt lon="99.701380" lat="12.874590">
                <ele>69.350000</ele>
                <time>2016-01-23T07:30:32Z</time>
            </trkpt>
            <trkpt lon="99.701929" lat="12.875490">
                <ele>70.790000</ele>
                <time>2016-01-23T07:31:03Z</time>
            </trkpt>
            <trkpt lon="99.702283" lat="12.876167">
                <ele>68.870000</ele>
                <time>2016-01-23T07:31:22Z</time>
            </trkpt>
            <trkpt lon="99.702046" lat="12.876842">
                <ele>69.350000</ele>
                <time>2016-01-23T07:31:42Z</time>
            </trkpt>
            <trkpt lon="99.701816" lat="12.880379">
                <ele>79.930000</ele>
                <time>2016-01-23T07:34:22Z</time>
            </trkpt>
            <trkpt lon="99.702083" lat="12.880004">
                <ele>79.450000</ele>
                <time>2016-01-23T07:34:38Z</time>
            </trkpt>
            <trkpt lon="99.702464" lat="12.879730">
                <ele>77.520000</ele>
                <time>2016-01-23T07:34:51Z</time>
            </trkpt>
            <trkpt lon="99.703167" lat="12.879656">
                <ele>74.640000</ele>
                <time>2016-01-23T07:35:06Z</time>
            </trkpt>
            <trkpt lon="99.704236" lat="12.880585">
                <ele>73.200000</ele>
                <time>2016-01-23T07:35:36Z</time>
            </trkpt>
            <trkpt lon="99.704375" lat="12.881061">
                <ele>72.240000</ele>
                <time>2016-01-23T07:35:48Z</time>
            </trkpt>
            <trkpt lon="99.704963" lat="12.881994">
                <ele>68.390000</ele>
                <time>2016-01-23T07:36:08Z</time>
            </trkpt>
            <trkpt lon="99.704923" lat="12.882348">
                <ele>68.870000</ele>
                <time>2016-01-23T07:36:17Z</time>
            </trkpt>
            <trkpt lon="99.704167" lat="12.882665">
                <ele>70.310000</ele>
                <time>2016-01-23T07:36:37Z</time>
            </trkpt>
            <trkpt lon="99.704141" lat="12.882978">
                <ele>70.310000</ele>
                <time>2016-01-23T07:36:46Z</time>
            </trkpt>
            <trkpt lon="99.705837" lat="12.887680">
                <ele>76.560000</ele>
                <time>2016-01-23T07:39:05Z</time>
            </trkpt>
            <trkpt lon="99.707179" lat="12.889773">
                <ele>80.890000</ele>
                <time>2016-01-23T07:40:26Z</time>
            </trkpt>
            <trkpt lon="99.707545" lat="12.890223">
                <ele>80.890000</ele>
                <time>2016-01-23T07:40:43Z</time>
            </trkpt>
            <trkpt lon="99.708480" lat="12.890375">
                <ele>78.970000</ele>
                <time>2016-01-23T07:41:13Z</time>
            </trkpt>
            <trkpt lon="99.709204" lat="12.890805">
                <ele>79.930000</ele>
                <time>2016-01-23T07:41:40Z</time>
            </trkpt>
            <trkpt lon="99.710122" lat="12.890750">
                <ele>78.970000</ele>
                <time>2016-01-23T07:42:11Z</time>
            </trkpt>
            <trkpt lon="99.710572" lat="12.891006">
                <ele>79.930000</ele>
                <time>2016-01-23T07:42:28Z</time>
            </trkpt>
            <trkpt lon="99.711194" lat="12.890748">
                <ele>78.970000</ele>
                <time>2016-01-23T07:42:46Z</time>
            </trkpt>
            <trkpt lon="99.711493" lat="12.890897">
                <ele>78.970000</ele>
                <time>2016-01-23T07:42:58Z</time>
            </trkpt>
            <trkpt lon="99.711516" lat="12.891017">
                <ele>79.450000</ele>
                <time>2016-01-23T07:43:02Z</time>
            </trkpt>
            <trkpt lon="99.711688" lat="12.891663">
                <ele>79.930000</ele>
                <time>2016-01-23T07:43:22Z</time>
            </trkpt>
            <trkpt lon="99.713227" lat="12.892846">
                <ele>79.450000</ele>
                <time>2016-01-23T07:44:12Z</time>
            </trkpt>
            <trkpt lon="99.714141" lat="12.893576">
                <ele>78.970000</ele>
                <time>2016-01-23T07:44:47Z</time>
            </trkpt>
            <trkpt lon="99.714399" lat="12.893077">
                <ele>78.480000</ele>
                <time>2016-01-23T07:45:06Z</time>
            </trkpt>
            <trkpt lon="99.715684" lat="12.892665">
                <ele>77.040000</ele>
                <time>2016-01-23T07:45:40Z</time>
            </trkpt>
            <trkpt lon="99.717483" lat="12.891439">
                <ele>78.970000</ele>
                <time>2016-01-23T07:46:35Z</time>
            </trkpt>
            <trkpt lon="99.718574" lat="12.890490">
                <ele>82.810000</ele>
                <time>2016-01-23T07:47:17Z</time>
            </trkpt>
            <trkpt lon="99.719435" lat="12.889669">
                <ele>85.210000</ele>
                <time>2016-01-23T07:47:55Z</time>
            </trkpt>
            <trkpt lon="99.721496" lat="12.888595">
                <ele>90.500000</ele>
                <time>2016-01-23T07:49:09Z</time>
            </trkpt>
            <trkpt lon="99.722667" lat="12.888148">
                <ele>93.390000</ele>
                <time>2016-01-23T07:49:47Z</time>
            </trkpt>
            <trkpt lon="99.723261" lat="12.887971">
                <ele>93.870000</ele>
                <time>2016-01-23T07:50:05Z</time>
            </trkpt>
            <trkpt lon="99.724236" lat="12.887952">
                <ele>92.900000</ele>
                <time>2016-01-23T07:50:35Z</time>
            </trkpt>
            <trkpt lon="99.724735" lat="12.888280">
                <ele>92.900000</ele>
                <time>2016-01-23T07:50:49Z</time>
            </trkpt>
            <trkpt lon="99.727979" lat="12.891000">
                <ele>87.620000</ele>
                <time>2016-01-23T07:52:05Z</time>
            </trkpt>
            <trkpt lon="99.727776" lat="12.890813">
                <ele>87.620000</ele>
                <time>2016-01-23T07:52:24Z</time>
            </trkpt>
            <trkpt lon="99.727948" lat="12.890992">
                <ele>86.180000</ele>
                <time>2016-01-23T07:52:45Z</time>
            </trkpt>
            <trkpt lon="99.727800" lat="12.890870">
                <ele>87.140000</ele>
                <time>2016-01-23T07:53:03Z</time>
            </trkpt>
            <trkpt lon="99.727871" lat="12.890780">
                <ele>87.620000</ele>
                <time>2016-01-23T07:53:09Z</time>
            </trkpt>
            <trkpt lon="99.731039" lat="12.887061">
                <ele>96.750000</ele>
                <time>2016-01-23T07:55:42Z</time>
            </trkpt>
            <trkpt lon="99.731046" lat="12.886992">
                <ele>96.750000</ele>
                <time>2016-01-23T07:55:45Z</time>
            </trkpt>
            <trkpt lon="99.731208" lat="12.886919">
                <ele>96.750000</ele>
                <time>2016-01-23T07:55:55Z</time>
            </trkpt>
            <trkpt lon="99.732078" lat="12.885908">
                <ele>103.960000</ele>
                <time>2016-01-23T07:57:15Z</time>
            </trkpt>
            <trkpt lon="99.730451" lat="12.887734">
                <ele>93.870000</ele>
                <time>2016-01-23T07:58:29Z</time>
            </trkpt>
            <trkpt lon="99.730440" lat="12.887963">
                <ele>92.900000</ele>
                <time>2016-01-23T07:58:34Z</time>
            </trkpt>
            <trkpt lon="99.731232" lat="12.888555">
                <ele>93.390000</ele>
                <time>2016-01-23T07:58:54Z</time>
            </trkpt>
            <trkpt lon="99.733104" lat="12.889183">
                <ele>100.110000</ele>
                <time>2016-01-23T08:00:07Z</time>
            </trkpt>
            <trkpt lon="99.736176" lat="12.889233">
                <ele>108.290000</ele>
                <time>2016-01-23T08:02:10Z</time>
            </trkpt>
            <trkpt lon="99.739912" lat="12.889279">
                <ele>114.050000</ele>
                <time>2016-01-23T08:03:56Z</time>
            </trkpt>
            <trkpt lon="99.739969" lat="12.888311">
                <ele>108.290000</ele>
                <time>2016-01-23T08:04:18Z</time>
            </trkpt>
            <trkpt lon="99.740122" lat="12.888143">
                <ele>107.810000</ele>
                <time>2016-01-23T08:04:24Z</time>
            </trkpt>
            <trkpt lon="99.741248" lat="12.888155">
                <ele>110.690000</ele>
                <time>2016-01-23T08:04:58Z</time>
            </trkpt>
            <trkpt lon="99.741952" lat="12.888145">
                <ele>108.290000</ele>
                <time>2016-01-23T08:05:18Z</time>
            </trkpt>
            <trkpt lon="99.742691" lat="12.887927">
                <ele>102.040000</ele>
                <time>2016-01-23T08:25:17Z</time>
            </trkpt>
            <trkpt lon="99.742818" lat="12.887982">
                <ele>101.560000</ele>
                <time>2016-01-23T08:25:43Z</time>
            </trkpt>
            <trkpt lon="99.742682" lat="12.888480">
                <ele>103.480000</ele>
                <time>2016-01-23T08:26:07Z</time>
            </trkpt>
            <trkpt lon="99.742842" lat="12.888689">
                <ele>103.480000</ele>
                <time>2016-01-23T08:26:16Z</time>
            </trkpt>
            <trkpt lon="99.742753" lat="12.889251">
                <ele>109.250000</ele>
                <time>2016-01-23T08:26:46Z</time>
            </trkpt>
            <trkpt lon="99.742638" lat="12.889567">
                <ele>107.810000</ele>
                <time>2016-01-23T08:27:00Z</time>
            </trkpt>
            <trkpt lon="99.742729" lat="12.889861">
                <ele>109.250000</ele>
                <time>2016-01-23T08:27:12Z</time>
            </trkpt>
            <trkpt lon="99.743091" lat="12.890171">
                <ele>111.650000</ele>
                <time>2016-01-23T08:27:38Z</time>
            </trkpt>
            <trkpt lon="99.743170" lat="12.890414">
                <ele>113.570000</ele>
                <time>2016-01-23T08:27:53Z</time>
            </trkpt>
            <trkpt lon="99.743272" lat="12.890403">
                <ele>113.570000</ele>
                <time>2016-01-23T08:27:58Z</time>
            </trkpt>
            <trkpt lon="99.743625" lat="12.890299">
                <ele>110.210000</ele>
                <time>2016-01-23T08:28:12Z</time>
            </trkpt>
            <trkpt lon="99.744018" lat="12.890473">
                <ele>110.210000</ele>
                <time>2016-01-23T08:28:25Z</time>
            </trkpt>
            <trkpt lon="99.744391" lat="12.890412">
                <ele>110.210000</ele>
                <time>2016-01-23T08:28:37Z</time>
            </trkpt>
            <trkpt lon="99.744612" lat="12.890266">
                <ele>108.770000</ele>
                <time>2016-01-23T08:28:45Z</time>
            </trkpt>
            <trkpt lon="99.745206" lat="12.890264">
                <ele>105.880000</ele>
                <time>2016-01-23T08:29:02Z</time>
            </trkpt>
            <trkpt lon="99.745579" lat="12.890156">
                <ele>103.960000</ele>
                <time>2016-01-23T08:29:12Z</time>
            </trkpt>
            <trkpt lon="99.745740" lat="12.889934">
                <ele>103.480000</ele>
                <time>2016-01-23T08:29:19Z</time>
            </trkpt>
            <trkpt lon="99.746106" lat="12.889611">
                <ele>101.560000</ele>
                <time>2016-01-23T08:29:31Z</time>
            </trkpt>
            <trkpt lon="99.746302" lat="12.889549">
                <ele>100.600000</ele>
                <time>2016-01-23T08:29:36Z</time>
            </trkpt>
            <trkpt lon="99.746612" lat="12.889901">
                <ele>99.630000</ele>
                <time>2016-01-23T08:29:53Z</time>
            </trkpt>
            <trkpt lon="99.746756" lat="12.889846">
                <ele>99.150000</ele>
                <time>2016-01-23T08:29:58Z</time>
            </trkpt>
            <trkpt lon="99.747590" lat="12.889879">
                <ele>93.390000</ele>
                <time>2016-01-23T08:30:21Z</time>
            </trkpt>
            <trkpt lon="99.748632" lat="12.891710">
                <ele>88.100000</ele>
                <time>2016-01-23T08:31:56Z</time>
            </trkpt>
            <trkpt lon="99.748707" lat="12.892568">
                <ele>85.690000</ele>
                <time>2016-01-23T08:32:21Z</time>
            </trkpt>
            <trkpt lon="99.750369" lat="12.891800">
                <ele>93.390000</ele>
                <time>2016-01-23T08:33:36Z</time>
            </trkpt>
            <trkpt lon="99.751821" lat="12.891651">
                <ele>96.270000</ele>
                <time>2016-01-23T08:34:33Z</time>
            </trkpt>
            <trkpt lon="99.752135" lat="12.891570">
                <ele>95.790000</ele>
                <time>2016-01-23T08:34:46Z</time>
            </trkpt>
            <trkpt lon="99.752339" lat="12.891309">
                <ele>96.270000</ele>
                <time>2016-01-23T08:34:58Z</time>
            </trkpt>
            <trkpt lon="99.752579" lat="12.890757">
                <ele>91.460000</ele>
                <time>2016-01-23T08:35:14Z</time>
            </trkpt>
            <trkpt lon="99.752512" lat="12.890286">
                <ele>91.460000</ele>
                <time>2016-01-23T08:35:27Z</time>
            </trkpt>
            <trkpt lon="99.752568" lat="12.889699">
                <ele>87.140000</ele>
                <time>2016-01-23T08:35:39Z</time>
            </trkpt>
            <trkpt lon="99.752799" lat="12.889221">
                <ele>85.690000</ele>
                <time>2016-01-23T08:35:54Z</time>
            </trkpt>
            <trkpt lon="99.753288" lat="12.889642">
                <ele>82.810000</ele>
                <time>2016-01-23T08:36:18Z</time>
            </trkpt>
            <trkpt lon="99.754102" lat="12.889337">
                <ele>79.930000</ele>
                <time>2016-01-23T08:36:37Z</time>
            </trkpt>
            <trkpt lon="99.754456" lat="12.889124">
                <ele>78.480000</ele>
                <time>2016-01-23T08:36:47Z</time>
            </trkpt>
            <trkpt lon="99.754599" lat="12.889036">
                <ele>77.520000</ele>
                <time>2016-01-23T08:36:51Z</time>
            </trkpt>
            <trkpt lon="99.755208" lat="12.889277">
                <ele>75.600000</ele>
                <time>2016-01-23T08:37:11Z</time>
            </trkpt>
            <trkpt lon="99.757122" lat="12.889215">
                <ele>71.760000</ele>
                <time>2016-01-23T08:38:00Z</time>
            </trkpt>
            <trkpt lon="99.757596" lat="12.889331">
                <ele>70.790000</ele>
                <time>2016-01-23T08:38:12Z</time>
            </trkpt>
            <trkpt lon="99.758203" lat="12.889739">
                <ele>70.310000</ele>
                <time>2016-01-23T08:38:31Z</time>
            </trkpt>
            <trkpt lon="99.758798" lat="12.890378">
                <ele>69.830000</ele>
                <time>2016-01-23T08:42:07Z</time>
            </trkpt>
            <trkpt lon="99.759205" lat="12.890794">
                <ele>67.910000</ele>
                <time>2016-01-23T08:43:50Z</time>
            </trkpt>
            <trkpt lon="99.759790" lat="12.890747">
                <ele>66.950000</ele>
                <time>2016-01-23T08:44:14Z</time>
            </trkpt>
            <trkpt lon="99.759839" lat="12.890843">
                <ele>67.430000</ele>
                <time>2016-01-23T08:44:19Z</time>
            </trkpt>
            <trkpt lon="99.760009" lat="12.893197">
                <ele>66.950000</ele>
                <time>2016-01-23T08:45:15Z</time>
            </trkpt>
            <trkpt lon="99.759793" lat="12.894425">
                <ele>66.470000</ele>
                <time>2016-01-23T08:45:41Z</time>
            </trkpt>
            <trkpt lon="99.759923" lat="12.895376">
                <ele>64.550000</ele>
                <time>2016-01-23T08:45:59Z</time>
            </trkpt>
            <trkpt lon="99.760900" lat="12.896480">
                <ele>62.140000</ele>
                <time>2016-01-23T08:46:25Z</time>
            </trkpt>
            <trkpt lon="99.760942" lat="12.896628">
                <ele>61.660000</ele>
                <time>2016-01-23T08:46:28Z</time>
            </trkpt>
            <trkpt lon="99.760860" lat="12.897136">
                <ele>62.140000</ele>
                <time>2016-01-23T08:46:38Z</time>
            </trkpt>
            <trkpt lon="99.760074" lat="12.897967">
                <ele>60.700000</ele>
                <time>2016-01-23T08:46:58Z</time>
            </trkpt>
            <trkpt lon="99.759841" lat="12.897966">
                <ele>61.180000</ele>
                <time>2016-01-23T08:47:05Z</time>
            </trkpt>
            <trkpt lon="99.759584" lat="12.897765">
                <ele>62.140000</ele>
                <time>2016-01-23T08:47:13Z</time>
            </trkpt>
            <trkpt lon="99.759417" lat="12.897579">
                <ele>61.180000</ele>
                <time>2016-01-23T08:47:20Z</time>
            </trkpt>
            <trkpt lon="99.758956" lat="12.897505">
                <ele>63.580000</ele>
                <time>2016-01-23T08:47:36Z</time>
            </trkpt>
            <trkpt lon="99.758684" lat="12.897408">
                <ele>63.580000</ele>
                <time>2016-01-23T08:47:48Z</time>
            </trkpt>
            <trkpt lon="99.758315" lat="12.897448">
                <ele>64.550000</ele>
                <time>2016-01-23T08:48:03Z</time>
            </trkpt>
            <trkpt lon="99.758084" lat="12.897682">
                <ele>66.470000</ele>
                <time>2016-01-23T08:48:18Z</time>
            </trkpt>
            <trkpt lon="99.758066" lat="12.898183">
                <ele>66.470000</ele>
                <time>2016-01-23T08:48:35Z</time>
            </trkpt>
            <trkpt lon="99.758700" lat="12.898619">
                <ele>64.070000</ele>
                <time>2016-01-23T08:48:55Z</time>
            </trkpt>
            <trkpt lon="99.758648" lat="12.899102">
                <ele>64.070000</ele>
                <time>2016-01-23T08:49:09Z</time>
            </trkpt>
            <trkpt lon="99.758768" lat="12.899309">
                <ele>64.070000</ele>
                <time>2016-01-23T08:49:16Z</time>
            </trkpt>
            <trkpt lon="99.758899" lat="12.899795">
                <ele>62.620000</ele>
                <time>2016-01-23T08:49:27Z</time>
            </trkpt>
            <trkpt lon="99.758878" lat="12.900502">
                <ele>62.620000</ele>
                <time>2016-01-23T08:49:44Z</time>
            </trkpt>
            <trkpt lon="99.758398" lat="12.901202">
                <ele>62.620000</ele>
                <time>2016-01-23T08:50:08Z</time>
            </trkpt>
            <trkpt lon="99.757797" lat="12.900841">
                <ele>64.070000</ele>
                <time>2016-01-23T08:50:31Z</time>
            </trkpt>
            <trkpt lon="99.757523" lat="12.900403">
                <ele>64.550000</ele>
                <time>2016-01-23T08:50:48Z</time>
            </trkpt>
            <trkpt lon="99.757258" lat="12.900253">
                <ele>65.030000</ele>
                <time>2016-01-23T08:50:58Z</time>
            </trkpt>
            <trkpt lon="99.755838" lat="12.899888">
                <ele>67.430000</ele>
                <time>2016-01-23T08:51:47Z</time>
            </trkpt>
            <trkpt lon="99.755585" lat="12.899697">
                <ele>68.870000</ele>
                <time>2016-01-23T08:52:01Z</time>
            </trkpt>
            <trkpt lon="99.755414" lat="12.899221">
                <ele>70.790000</ele>
                <time>2016-01-23T08:52:25Z</time>
            </trkpt>
            <trkpt lon="99.755490" lat="12.898742">
                <ele>71.760000</ele>
                <time>2016-01-23T08:52:45Z</time>
            </trkpt>
            <trkpt lon="99.755096" lat="12.898418">
                <ele>74.160000</ele>
                <time>2016-01-23T08:53:09Z</time>
            </trkpt>
            <trkpt lon="99.753962" lat="12.898395">
                <ele>80.890000</ele>
                <time>2016-01-23T08:54:02Z</time>
            </trkpt>
            <trkpt lon="99.754213" lat="12.898474">
                <ele>78.970000</ele>
                <time>2016-01-23T08:59:24Z</time>
            </trkpt>
            <trkpt lon="99.755016" lat="12.898329">
                <ele>75.120000</ele>
                <time>2016-01-23T08:59:54Z</time>
            </trkpt>
            <trkpt lon="99.755443" lat="12.898700">
                <ele>72.240000</ele>
                <time>2016-01-23T09:00:16Z</time>
            </trkpt>
            <trkpt lon="99.755355" lat="12.899287">
                <ele>70.790000</ele>
                <time>2016-01-23T09:00:48Z</time>
            </trkpt>
            <trkpt lon="99.755026" lat="12.899371">
                <ele>71.270000</ele>
                <time>2016-01-23T09:01:11Z</time>
            </trkpt>
            <trkpt lon="99.755439" lat="12.899389">
                <ele>70.310000</ele>
                <time>2016-01-23T09:01:39Z</time>
            </trkpt>
            <trkpt lon="99.755575" lat="12.899587">
                <ele>69.830000</ele>
                <time>2016-01-23T09:01:47Z</time>
            </trkpt>
            <trkpt lon="99.755728" lat="12.900280">
                <ele>66.470000</ele>
                <time>2016-01-23T09:02:26Z</time>
            </trkpt>
            <trkpt lon="99.755471" lat="12.900296">
                <ele>66.470000</ele>
                <time>2016-01-23T09:02:49Z</time>
            </trkpt>
            <trkpt lon="99.755540" lat="12.900511">
                <ele>65.990000</ele>
                <time>2016-01-23T09:03:00Z</time>
            </trkpt>
            <trkpt lon="99.755868" lat="12.900960">
                <ele>63.100000</ele>
                <time>2016-01-23T09:03:29Z</time>
            </trkpt>
            <trkpt lon="99.755919" lat="12.901259">
                <ele>62.140000</ele>
                <time>2016-01-23T09:03:47Z</time>
            </trkpt>
            <trkpt lon="99.755767" lat="12.900722">
                <ele>63.580000</ele>
                <time>2016-01-23T09:04:22Z</time>
            </trkpt>
            <trkpt lon="99.755434" lat="12.900280">
                <ele>66.950000</ele>
                <time>2016-01-23T09:05:10Z</time>
            </trkpt>
            <trkpt lon="99.755695" lat="12.900250">
                <ele>65.030000</ele>
                <time>2016-01-23T09:05:56Z</time>
            </trkpt>
            <trkpt lon="99.755725" lat="12.899936">
                <ele>66.950000</ele>
                <time>2016-01-23T09:06:12Z</time>
            </trkpt>
            <trkpt lon="99.755544" lat="12.899513">
                <ele>69.830000</ele>
                <time>2016-01-23T09:06:38Z</time>
            </trkpt>
            <trkpt lon="99.755467" lat="12.898699">
                <ele>71.270000</ele>
                <time>2016-01-23T09:07:17Z</time>
            </trkpt>
            <trkpt lon="99.755024" lat="12.898330">
                <ele>74.640000</ele>
                <time>2016-01-23T09:07:45Z</time>
            </trkpt>
            <trkpt lon="99.754765" lat="12.898337">
                <ele>76.080000</ele>
                <time>2016-01-23T09:07:59Z</time>
            </trkpt>
            <trkpt lon="99.754100" lat="12.898454">
                <ele>78.970000</ele>
                <time>2016-01-23T09:08:30Z</time>
            </trkpt>
            <trkpt lon="99.753741" lat="12.898312">
                <ele>80.890000</ele>
                <time>2016-01-23T09:08:51Z</time>
            </trkpt>
            <trkpt lon="99.753135" lat="12.898228">
                <ele>77.520000</ele>
                <time>2016-01-23T09:09:12Z</time>
            </trkpt>
            <trkpt lon="99.752847" lat="12.898439">
                <ele>74.160000</ele>
                <time>2016-01-23T09:09:27Z</time>
            </trkpt>
            <trkpt lon="99.753587" lat="12.901317">
                <ele>65.510000</ele>
                <time>2016-01-23T09:10:54Z</time>
            </trkpt>
            <trkpt lon="99.753704" lat="12.902288">
                <ele>65.510000</ele>
                <time>2016-01-23T09:11:21Z</time>
            </trkpt>
            <trkpt lon="99.753831" lat="12.902565">
                <ele>64.070000</ele>
                <time>2016-01-23T09:11:29Z</time>
            </trkpt>
            <trkpt lon="99.754368" lat="12.902541">
                <ele>65.510000</ele>
                <time>2016-01-23T09:11:44Z</time>
            </trkpt>
            <trkpt lon="99.754770" lat="12.904048">
                <ele>63.100000</ele>
                <time>2016-01-23T09:12:22Z</time>
            </trkpt>
            <trkpt lon="99.755216" lat="12.906515">
                <ele>56.860000</ele>
                <time>2016-01-23T09:17:44Z</time>
            </trkpt>
            <trkpt lon="99.755781" lat="12.907191">
                <ele>54.930000</ele>
                <time>2016-01-23T09:18:02Z</time>
            </trkpt>
            <trkpt lon="99.755924" lat="12.909613">
                <ele>52.530000</ele>
                <time>2016-01-23T09:18:56Z</time>
            </trkpt>
            <trkpt lon="99.749883" lat="12.909229">
                <ele>58.300000</ele>
                <time>2016-01-23T09:21:12Z</time>
            </trkpt>
            <trkpt lon="99.748831" lat="12.909503">
                <ele>63.100000</ele>
                <time>2016-01-23T09:21:50Z</time>
            </trkpt>
            <trkpt lon="99.748250" lat="12.909722">
                <ele>64.070000</ele>
                <time>2016-01-23T09:22:11Z</time>
            </trkpt>
            <trkpt lon="99.747301" lat="12.909868">
                <ele>64.070000</ele>
                <time>2016-01-23T09:22:46Z</time>
            </trkpt>
            <trkpt lon="99.745526" lat="12.909462">
                <ele>60.700000</ele>
                <time>2016-01-23T09:23:21Z</time>
            </trkpt>
            <trkpt lon="99.744181" lat="12.908279">
                <ele>65.990000</ele>
                <time>2016-01-23T09:24:06Z</time>
            </trkpt>
            <trkpt lon="99.743722" lat="12.908019">
                <ele>67.430000</ele>
                <time>2016-01-23T09:24:22Z</time>
            </trkpt>
            <trkpt lon="99.737262" lat="12.907345">
                <ele>65.510000</ele>
                <time>2016-01-23T09:26:35Z</time>
            </trkpt>
            <trkpt lon="99.736155" lat="12.907091">
                <ele>62.140000</ele>
                <time>2016-01-23T09:26:52Z</time>
            </trkpt>
            <trkpt lon="99.733813" lat="12.905678">
                <ele>64.550000</ele>
                <time>2016-01-23T09:27:46Z</time>
            </trkpt>
            <trkpt lon="99.731546" lat="12.905029">
                <ele>63.580000</ele>
                <time>2016-01-23T09:28:33Z</time>
            </trkpt>
            <trkpt lon="99.731688" lat="12.905095">
                <ele>63.100000</ele>
                <time>2016-01-23T09:28:44Z</time>
            </trkpt>
            <trkpt lon="99.731707" lat="12.905277">
                <ele>60.700000</ele>
                <time>2016-01-23T09:28:49Z</time>
            </trkpt>
            <trkpt lon="99.731330" lat="12.908164">
                <ele>56.860000</ele>
                <time>2016-01-23T09:29:49Z</time>
            </trkpt>
            <trkpt lon="99.731293" lat="12.908679">
                <ele>54.930000</ele>
                <time>2016-01-23T09:30:00Z</time>
            </trkpt>
            <trkpt lon="99.730925" lat="12.909420">
                <ele>53.010000</ele>
                <time>2016-01-23T09:31:05Z</time>
            </trkpt>
            <trkpt lon="99.730619" lat="12.911013">
                <ele>52.050000</ele>
                <time>2016-01-23T09:31:47Z</time>
            </trkpt>
            <trkpt lon="99.730604" lat="12.911413">
                <ele>53.010000</ele>
                <time>2016-01-23T09:31:58Z</time>
            </trkpt>
            <trkpt lon="99.730947" lat="12.911814">
                <ele>52.050000</ele>
                <time>2016-01-23T09:32:13Z</time>
            </trkpt>
            <trkpt lon="99.730930" lat="12.911937">
                <ele>54.450000</ele>
                <time>2016-01-23T09:32:21Z</time>
            </trkpt>
            <trkpt lon="99.729377" lat="12.910397">
                <ele>55.410000</ele>
                <time>2016-01-23T09:38:58Z</time>
            </trkpt>
            <trkpt lon="99.729226" lat="12.910271">
                <ele>54.930000</ele>
                <time>2016-01-23T09:39:03Z</time>
            </trkpt>
            <trkpt lon="99.729068" lat="12.910378">
                <ele>53.970000</ele>
                <time>2016-01-23T09:39:09Z</time>
            </trkpt>
            <trkpt lon="99.728646" lat="12.912853">
                <ele>57.820000</ele>
                <time>2016-01-23T09:40:13Z</time>
            </trkpt>
            <trkpt lon="99.728951" lat="12.913319">
                <ele>57.340000</ele>
                <time>2016-01-23T09:40:27Z</time>
            </trkpt>
            <trkpt lon="99.728782" lat="12.913590">
                <ele>59.740000</ele>
                <time>2016-01-23T09:40:39Z</time>
            </trkpt>
            <trkpt lon="99.728316" lat="12.914699">
                <ele>60.220000</ele>
                <time>2016-01-23T09:41:15Z</time>
            </trkpt>
            <trkpt lon="99.728409" lat="12.915216">
                <ele>61.180000</ele>
                <time>2016-01-23T09:41:29Z</time>
            </trkpt>
            <trkpt lon="99.727811" lat="12.915399">
                <ele>62.140000</ele>
                <time>2016-01-23T09:41:51Z</time>
            </trkpt>
            <trkpt lon="99.727962" lat="12.916772">
                <ele>61.180000</ele>
                <time>2016-01-23T09:42:26Z</time>
            </trkpt>
            <trkpt lon="99.727758" lat="12.916975">
                <ele>62.140000</ele>
                <time>2016-01-23T09:42:35Z</time>
            </trkpt>
            <trkpt lon="99.726953" lat="12.916196">
                <ele>65.510000</ele>
                <time>2016-01-23T09:43:12Z</time>
            </trkpt>
            <trkpt lon="99.726274" lat="12.915943">
                <ele>68.870000</ele>
                <time>2016-01-23T09:43:45Z</time>
            </trkpt>
            <trkpt lon="99.725635" lat="12.915829">
                <ele>70.310000</ele>
                <time>2016-01-23T09:44:15Z</time>
            </trkpt>
            <trkpt lon="99.724562" lat="12.913475">
                <ele>67.910000</ele>
                <time>2016-01-23T09:45:21Z</time>
            </trkpt>
            <trkpt lon="99.723318" lat="12.911643">
                <ele>65.990000</ele>
                <time>2016-01-23T09:46:06Z</time>
            </trkpt>
            <trkpt lon="99.722319" lat="12.910077">
                <ele>62.140000</ele>
                <time>2016-01-23T09:46:48Z</time>
            </trkpt>
            <trkpt lon="99.721575" lat="12.910162">
                <ele>64.550000</ele>
                <time>2016-01-23T09:47:06Z</time>
            </trkpt>
            <trkpt lon="99.719913" lat="12.909876">
                <ele>67.430000</ele>
                <time>2016-01-23T09:47:52Z</time>
            </trkpt>
            <trkpt lon="99.718717" lat="12.909722">
                <ele>66.470000</ele>
                <time>2016-01-23T09:48:33Z</time>
            </trkpt>
            <trkpt lon="99.717154" lat="12.909494">
                <ele>61.180000</ele>
                <time>2016-01-23T09:49:03Z</time>
            </trkpt>
            <trkpt lon="99.716916" lat="12.909594">
                <ele>60.220000</ele>
                <time>2016-01-23T09:49:09Z</time>
            </trkpt>
            <trkpt lon="99.715776" lat="12.909296">
                <ele>62.140000</ele>
                <time>2016-01-23T09:49:49Z</time>
            </trkpt>
            <trkpt lon="99.715537" lat="12.909439">
                <ele>61.660000</ele>
                <time>2016-01-23T09:49:58Z</time>
            </trkpt>
            <trkpt lon="99.715198" lat="12.909872">
                <ele>62.140000</ele>
                <time>2016-01-23T09:50:13Z</time>
            </trkpt>
            <trkpt lon="99.714820" lat="12.909945">
                <ele>61.180000</ele>
                <time>2016-01-23T09:50:23Z</time>
            </trkpt>
            <trkpt lon="99.714724" lat="12.910093">
                <ele>61.180000</ele>
                <time>2016-01-23T09:50:27Z</time>
            </trkpt>
            <trkpt lon="99.714620" lat="12.910875">
                <ele>62.140000</ele>
                <time>2016-01-23T09:50:49Z</time>
            </trkpt>
            <trkpt lon="99.713475" lat="12.912803">
                <ele>66.950000</ele>
                <time>2016-01-23T09:52:12Z</time>
            </trkpt>
            <trkpt lon="99.711946" lat="12.915385">
                <ele>71.270000</ele>
                <time>2016-01-23T09:53:50Z</time>
            </trkpt>
            <trkpt lon="99.711609" lat="12.916006">
                <ele>71.270000</ele>
                <time>2016-01-23T09:58:09Z</time>
            </trkpt>
            <trkpt lon="99.709043" lat="12.914984">
                <ele>68.390000</ele>
                <time>2016-01-23T09:59:26Z</time>
            </trkpt>
            <trkpt lon="99.707009" lat="12.913598">
                <ele>71.760000</ele>
                <time>2016-01-23T10:00:36Z</time>
            </trkpt>
            <trkpt lon="99.704919" lat="12.912554">
                <ele>73.680000</ele>
                <time>2016-01-23T10:01:45Z</time>
            </trkpt>
            <trkpt lon="99.703761" lat="12.912171">
                <ele>70.310000</ele>
                <time>2016-01-23T10:02:11Z</time>
            </trkpt>
            <trkpt lon="99.704026" lat="12.910920">
                <ele>67.430000</ele>
                <time>2016-01-23T10:02:39Z</time>
            </trkpt>
            <trkpt lon="99.703951" lat="12.909743">
                <ele>69.350000</ele>
                <time>2016-01-23T10:03:09Z</time>
            </trkpt>
            <trkpt lon="99.703924" lat="12.909641">
                <ele>68.870000</ele>
                <time>2016-01-23T10:03:12Z</time>
            </trkpt>
            <trkpt lon="99.703121" lat="12.909519">
                <ele>70.310000</ele>
                <time>2016-01-23T10:05:54Z</time>
            </trkpt>
            <trkpt lon="99.702561" lat="12.908962">
                <ele>71.760000</ele>
                <time>2016-01-23T10:06:17Z</time>
            </trkpt>
            <trkpt lon="99.702136" lat="12.908232">
                <ele>71.270000</ele>
                <time>2016-01-23T10:06:39Z</time>
            </trkpt>
            <trkpt lon="99.701705" lat="12.908085">
                <ele>72.720000</ele>
                <time>2016-01-23T10:06:51Z</time>
            </trkpt>
            <trkpt lon="99.701311" lat="12.908128">
                <ele>73.680000</ele>
                <time>2016-01-23T10:07:03Z</time>
            </trkpt>
            <trkpt lon="99.700570" lat="12.908079">
                <ele>74.640000</ele>
                <time>2016-01-23T10:07:28Z</time>
            </trkpt>
            <trkpt lon="99.700047" lat="12.907889">
                <ele>76.080000</ele>
                <time>2016-01-23T10:07:47Z</time>
            </trkpt>
            <trkpt lon="99.699823" lat="12.907671">
                <ele>77.040000</ele>
                <time>2016-01-23T10:07:58Z</time>
            </trkpt>
            <trkpt lon="99.699685" lat="12.907421">
                <ele>77.040000</ele>
                <time>2016-01-23T10:08:07Z</time>
            </trkpt>
            <trkpt lon="99.699221" lat="12.907271">
                <ele>78.000000</ele>
                <time>2016-01-23T10:08:24Z</time>
            </trkpt>
            <trkpt lon="99.699245" lat="12.905866">
                <ele>77.040000</ele>
                <time>2016-01-23T10:09:04Z</time>
            </trkpt>
            <trkpt lon="99.699539" lat="12.905846">
                <ele>77.040000</ele>
                <time>2016-01-23T10:09:11Z</time>
            </trkpt>
            <trkpt lon="99.699685" lat="12.905660">
                <ele>77.040000</ele>
                <time>2016-01-23T10:09:18Z</time>
            </trkpt>
            <trkpt lon="99.699631" lat="12.904357">
                <ele>80.890000</ele>
                <time>2016-01-23T10:09:59Z</time>
            </trkpt>
            <trkpt lon="99.699551" lat="12.903593">
                <ele>80.890000</ele>
                <time>2016-01-23T10:10:23Z</time>
            </trkpt>
            <trkpt lon="99.698581" lat="12.903454">
                <ele>83.290000</ele>
                <time>2016-01-23T10:10:54Z</time>
            </trkpt>
            <trkpt lon="99.697871" lat="12.903159">
                <ele>83.290000</ele>
                <time>2016-01-23T10:11:20Z</time>
            </trkpt>
            <trkpt lon="99.696905" lat="12.903021">
                <ele>81.850000</ele>
                <time>2016-01-23T10:11:44Z</time>
            </trkpt>
            <trkpt lon="99.696778" lat="12.902847">
                <ele>80.410000</ele>
                <time>2016-01-23T10:11:50Z</time>
            </trkpt>
            <trkpt lon="99.697143" lat="12.900689">
                <ele>81.370000</ele>
                <time>2016-01-23T10:12:40Z</time>
            </trkpt>
            <trkpt lon="99.698204" lat="12.898168">
                <ele>89.540000</ele>
                <time>2016-01-23T10:14:03Z</time>
            </trkpt>
            <trkpt lon="99.696282" lat="12.898354">
                <ele>90.500000</ele>
                <time>2016-01-23T10:14:50Z</time>
            </trkpt>
            <trkpt lon="99.692429" lat="12.899040">
                <ele>88.100000</ele>
                <time>2016-01-23T10:15:45Z</time>
            </trkpt>
            <trkpt lon="99.691521" lat="12.899570">
                <ele>88.580000</ele>
                <time>2016-01-23T10:16:10Z</time>
            </trkpt>
            <trkpt lon="99.691369" lat="12.899812">
                <ele>87.140000</ele>
                <time>2016-01-23T10:16:38Z</time>
            </trkpt>
            <trkpt lon="99.689198" lat="12.900738">
                <ele>89.540000</ele>
                <time>2016-01-23T10:17:46Z</time>
            </trkpt>
            <trkpt lon="99.688424" lat="12.900310">
                <ele>90.020000</ele>
                <time>2016-01-23T10:18:07Z</time>
            </trkpt>
            <trkpt lon="99.688180" lat="12.900311">
                <ele>89.540000</ele>
                <time>2016-01-23T10:18:12Z</time>
            </trkpt>
            <trkpt lon="99.687701" lat="12.900676">
                <ele>90.020000</ele>
                <time>2016-01-23T10:18:25Z</time>
            </trkpt>
            <trkpt lon="99.687649" lat="12.900803">
                <ele>89.060000</ele>
                <time>2016-01-23T10:18:28Z</time>
            </trkpt>
            <trkpt lon="99.686894" lat="12.900787">
                <ele>90.980000</ele>
                <time>2016-01-23T10:18:48Z</time>
            </trkpt>
            <trkpt lon="99.686534" lat="12.901122">
                <ele>91.460000</ele>
                <time>2016-01-23T10:19:00Z</time>
            </trkpt>
            <trkpt lon="99.686102" lat="12.901100">
                <ele>93.390000</ele>
                <time>2016-01-23T10:19:13Z</time>
            </trkpt>
            <trkpt lon="99.685700" lat="12.900896">
                <ele>94.350000</ele>
                <time>2016-01-23T10:19:28Z</time>
            </trkpt>
            <trkpt lon="99.684658" lat="12.901889">
                <ele>94.350000</ele>
                <time>2016-01-23T10:20:05Z</time>
            </trkpt>
            <trkpt lon="99.683513" lat="12.901165">
                <ele>96.270000</ele>
                <time>2016-01-23T10:20:37Z</time>
            </trkpt>
            <trkpt lon="99.682530" lat="12.900756">
                <ele>97.230000</ele>
                <time>2016-01-23T10:21:02Z</time>
            </trkpt>
            <trkpt lon="99.681919" lat="12.900308">
                <ele>98.670000</ele>
                <time>2016-01-23T10:21:20Z</time>
            </trkpt>
            <trkpt lon="99.681499" lat="12.900256">
                <ele>101.080000</ele>
                <time>2016-01-23T10:21:33Z</time>
            </trkpt>
            <trkpt lon="99.680704" lat="12.900081">
                <ele>101.080000</ele>
                <time>2016-01-23T10:21:55Z</time>
            </trkpt>
            <trkpt lon="99.680818" lat="12.899930">
                <ele>103.000000</ele>
                <time>2016-01-23T10:29:02Z</time>
            </trkpt>
        </trkseg>
    </trk>
</gpx>